sensor_id;sensor_type;location;lat;lon;timestamp;temperature;humidity
19252;DHT22;9760;50.944;5.304;2022-11-18T00:01:31;9.90;99.90
19252;DHT22;9760;50.944;5.304;2022-11-18T00:03:57;9.90;99.90
19252;DHT22;9760;50.944;5.304;2022-11-18T00:06:25;9.90;99.90
19252;DHT22;9760;50.944;5.304;2022-11-18T00:08:51;9.90;99.90
19252;DHT22;9760;50.944;5.304;2022-11-18T00:11:23;9.90;99.90
19252;DHT22;9760;50.944;5.304;2022-11-18T00:14:19;9.80;99.90
19252;DHT22;9760;50.944;5.304;2022-11-18T00:16:53;9.80;99.90
19252;DHT22;9760;50.944;5.304;2022-11-18T00:19:25;9.80;99.90
19252;DHT22;9760;50.944;5.304;2022-11-18T00:21:52;9.80;99.90
19252;DHT22;9760;50.944;5.304;2022-11-18T00:24:19;9.90;99.90
19252;DHT22;9760;50.944;5.304;2022-11-18T00:26:44;9.80;99.90
19252;DHT22;9760;50.944;5.304;2022-11-18T00:29:11;9.90;99.90
19252;DHT22;9760;50.944;5.304;2022-11-18T00:31:37;9.90;99.90
19252;DHT22;9760;50.944;5.304;2022-11-18T00:34:03;9.90;99.90
19252;DHT22;9760;50.944;5.304;2022-11-18T00:36:29;9.90;99.90
19252;DHT22;9760;50.944;5.304;2022-11-18T00:38:54;9.90;99.90
19252;DHT22;9760;50.944;5.304;2022-11-18T00:41:20;9.80;99.90
19252;DHT22;9760;50.944;5.304;2022-11-18T00:43:46;9.70;99.90
19252;DHT22;9760;50.944;5.304;2022-11-18T00:46:12;9.70;99.90
19252;DHT22;9760;50.944;5.304;2022-11-18T00:48:38;9.70;99.90
19252;DHT22;9760;50.944;5.304;2022-11-18T00:53:33;9.60;99.90
19252;DHT22;9760;50.944;5.304;2022-11-18T00:55:58;9.60;99.90
19252;DHT22;9760;50.944;5.304;2022-11-18T00:58:24;9.60;99.90
19252;DHT22;9760;50.944;5.304;2022-11-18T01:00:51;9.50;99.90
19252;DHT22;9760;50.944;5.304;2022-11-18T01:03:17;9.50;99.90
19252;DHT22;9760;50.944;5.304;2022-11-18T01:05:43;9.50;99.90
19252;DHT22;9760;50.944;5.304;2022-11-18T01:08:10;9.50;99.90
19252;DHT22;9760;50.944;5.304;2022-11-18T01:10:37;9.50;99.90
19252;DHT22;9760;50.944;5.304;2022-11-18T01:13:04;9.40;99.90
19252;DHT22;9760;50.944;5.304;2022-11-18T01:15:56;9.30;99.90
19252;DHT22;9760;50.944;5.304;2022-11-18T01:18:24;9.30;99.90
19252;DHT22;9760;50.944;5.304;2022-11-18T01:20:50;9.20;99.90
19252;DHT22;9760;50.944;5.304;2022-11-18T01:23:17;9.20;99.90
19252;DHT22;9760;50.944;5.304;2022-11-18T01:25:44;9.10;99.90
19252;DHT22;9760;50.944;5.304;2022-11-18T01:28:10;9.20;99.90
19252;DHT22;9760;50.944;5.304;2022-11-18T01:30:38;9.20;99.90
19252;DHT22;9760;50.944;5.304;2022-11-18T01:33:05;9.10;99.90
19252;DHT22;9760;50.944;5.304;2022-11-18T01:35:39;9.10;99.90
19252;DHT22;9760;50.944;5.304;2022-11-18T01:38:06;9.20;99.90
19252;DHT22;9760;50.944;5.304;2022-11-18T01:40:33;9.20;99.90
19252;DHT22;9760;50.944;5.304;2022-11-18T01:42:59;9.30;99.90
19252;DHT22;9760;50.944;5.304;2022-11-18T01:45:34;9.30;99.90
19252;DHT22;9760;50.944;5.304;2022-11-18T01:50:53;9.40;99.90
19252;DHT22;9760;50.944;5.304;2022-11-18T01:53:36;9.40;99.90
19252;DHT22;9760;50.944;5.304;2022-11-18T01:56:09;9.40;99.90
19252;DHT22;9760;50.944;5.304;2022-11-18T01:58:40;9.50;99.90
19252;DHT22;9760;50.944;5.304;2022-11-18T02:01:06;9.50;99.90
19252;DHT22;9760;50.944;5.304;2022-11-18T02:03:33;9.50;99.90
19252;DHT22;9760;50.944;5.304;2022-11-18T02:05:59;9.60;99.90
19252;DHT22;9760;50.944;5.304;2022-11-18T02:08:28;9.50;99.90
19252;DHT22;9760;50.944;5.304;2022-11-18T02:10:54;9.50;99.90
19252;DHT22;9760;50.944;5.304;2022-11-18T02:13:20;9.50;99.90
19252;DHT22;9760;50.944;5.304;2022-11-18T02:15:56;9.50;99.90
19252;DHT22;9760;50.944;5.304;2022-11-18T02:18:37;9.50;99.90
19252;DHT22;9760;50.944;5.304;2022-11-18T02:24:00;9.50;99.90
19252;DHT22;9760;50.944;5.304;2022-11-18T02:26:49;9.50;99.90
19252;DHT22;9760;50.944;5.304;2022-11-18T02:29:23;9.50;99.90
19252;DHT22;9760;50.944;5.304;2022-11-18T02:32:08;9.40;99.90
19252;DHT22;9760;50.944;5.304;2022-11-18T02:37:24;9.40;99.90
19252;DHT22;9760;50.944;5.304;2022-11-18T02:40:09;9.40;99.90
19252;DHT22;9760;50.944;5.304;2022-11-18T02:42:38;9.40;99.90
19252;DHT22;9760;50.944;5.304;2022-11-18T02:45:08;9.50;99.90
19252;DHT22;9760;50.944;5.304;2022-11-18T02:47:36;9.40;99.90
19252;DHT22;9760;50.944;5.304;2022-11-18T02:50:06;9.40;99.90
19252;DHT22;9760;50.944;5.304;2022-11-18T02:52:34;9.40;99.90
19252;DHT22;9760;50.944;5.304;2022-11-18T02:55:02;9.40;99.90
19252;DHT22;9760;50.944;5.304;2022-11-18T02:57:30;9.30;99.90
19252;DHT22;9760;50.944;5.304;2022-11-18T02:59:56;9.40;99.90
19252;DHT22;9760;50.944;5.304;2022-11-18T03:02:22;9.40;99.90
19252;DHT22;9760;50.944;5.304;2022-11-18T03:04:50;9.40;99.90
19252;DHT22;9760;50.944;5.304;2022-11-18T03:07:28;9.40;99.90
19252;DHT22;9760;50.944;5.304;2022-11-18T03:09:54;9.40;99.90
19252;DHT22;9760;50.944;5.304;2022-11-18T03:12:41;9.40;99.90
19252;DHT22;9760;50.944;5.304;2022-11-18T03:15:39;9.30;99.90
19252;DHT22;9760;50.944;5.304;2022-11-18T03:18:15;9.40;99.90
19252;DHT22;9760;50.944;5.304;2022-11-18T03:20:48;9.40;99.90
19252;DHT22;9760;50.944;5.304;2022-11-18T03:23:29;9.30;99.90
19252;DHT22;9760;50.944;5.304;2022-11-18T03:26:02;9.40;99.90
19252;DHT22;9760;50.944;5.304;2022-11-18T03:28:35;9.30;99.90
19252;DHT22;9760;50.944;5.304;2022-11-18T03:31:18;9.40;99.90
19252;DHT22;9760;50.944;5.304;2022-11-18T03:33:53;9.30;99.90
19252;DHT22;9760;50.944;5.304;2022-11-18T03:36:22;9.30;99.90
19252;DHT22;9760;50.944;5.304;2022-11-18T03:38:51;9.30;99.90
19252;DHT22;9760;50.944;5.304;2022-11-18T03:41:19;9.30;99.90
19252;DHT22;9760;50.944;5.304;2022-11-18T03:43:50;9.30;99.90
19252;DHT22;9760;50.944;5.304;2022-11-18T03:46:26;9.20;99.90
19252;DHT22;9760;50.944;5.304;2022-11-18T03:48:55;9.30;99.90
19252;DHT22;9760;50.944;5.304;2022-11-18T03:51:42;9.20;99.90
19252;DHT22;9760;50.944;5.304;2022-11-18T03:54:13;9.10;99.90
19252;DHT22;9760;50.944;5.304;2022-11-18T03:56:46;9.00;99.90
19252;DHT22;9760;50.944;5.304;2022-11-18T03:59:35;9.00;99.90
19252;DHT22;9760;50.944;5.304;2022-11-18T04:02:13;8.90;99.90
19252;DHT22;9760;50.944;5.304;2022-11-18T04:04:41;8.90;99.90
19252;DHT22;9760;50.944;5.304;2022-11-18T04:07:30;8.90;99.90
19252;DHT22;9760;50.944;5.304;2022-11-18T04:10:18;8.90;99.90
19252;DHT22;9760;50.944;5.304;2022-11-18T04:12:49;8.80;99.90
19252;DHT22;9760;50.944;5.304;2022-11-18T04:15:16;8.70;99.90
19252;DHT22;9760;50.944;5.304;2022-11-18T04:17:42;8.60;99.90
19252;DHT22;9760;50.944;5.304;2022-11-18T04:20:17;8.60;99.90
19252;DHT22;9760;50.944;5.304;2022-11-18T04:22:43;8.60;99.90
19252;DHT22;9760;50.944;5.304;2022-11-18T04:25:09;8.60;99.90
19252;DHT22;9760;50.944;5.304;2022-11-18T04:27:35;8.60;99.90
19252;DHT22;9760;50.944;5.304;2022-11-18T04:30:01;8.50;99.90
19252;DHT22;9760;50.944;5.304;2022-11-18T04:32:27;8.40;99.90
19252;DHT22;9760;50.944;5.304;2022-11-18T04:34:53;8.40;99.90
19252;DHT22;9760;50.944;5.304;2022-11-18T04:37:18;8.40;99.90
19252;DHT22;9760;50.944;5.304;2022-11-18T04:39:44;8.40;99.90
19252;DHT22;9760;50.944;5.304;2022-11-18T04:42:10;8.30;99.90
19252;DHT22;9760;50.944;5.304;2022-11-18T04:44:35;8.30;99.90
19252;DHT22;9760;50.944;5.304;2022-11-18T04:47:03;8.30;99.90
19252;DHT22;9760;50.944;5.304;2022-11-18T04:49:29;8.20;99.90
19252;DHT22;9760;50.944;5.304;2022-11-18T04:51:56;8.20;99.90
19252;DHT22;9760;50.944;5.304;2022-11-18T04:54:23;8.20;99.90
19252;DHT22;9760;50.944;5.304;2022-11-18T04:56:49;8.20;99.90
19252;DHT22;9760;50.944;5.304;2022-11-18T04:59:17;8.10;99.90
19252;DHT22;9760;50.944;5.304;2022-11-18T05:01:43;8.20;99.90
19252;DHT22;9760;50.944;5.304;2022-11-18T05:04:13;8.10;99.90
19252;DHT22;9760;50.944;5.304;2022-11-18T05:06:39;8.10;99.90
19252;DHT22;9760;50.944;5.304;2022-11-18T05:09:04;8.10;99.90
19252;DHT22;9760;50.944;5.304;2022-11-18T05:11:31;8.10;99.90
19252;DHT22;9760;50.944;5.304;2022-11-18T05:14:15;8.00;99.90
19252;DHT22;9760;50.944;5.304;2022-11-18T05:16:41;8.00;99.90
19252;DHT22;9760;50.944;5.304;2022-11-18T05:19:07;8.00;99.90
19252;DHT22;9760;50.944;5.304;2022-11-18T05:21:33;8.00;99.90
19252;DHT22;9760;50.944;5.304;2022-11-18T05:23:59;8.00;99.90
19252;DHT22;9760;50.944;5.304;2022-11-18T05:26:25;7.90;99.90
19252;DHT22;9760;50.944;5.304;2022-11-18T05:28:50;7.90;99.90
19252;DHT22;9760;50.944;5.304;2022-11-18T05:31:16;7.90;99.90
19252;DHT22;9760;50.944;5.304;2022-11-18T05:33:43;7.90;99.90
19252;DHT22;9760;50.944;5.304;2022-11-18T05:36:12;7.90;99.90
19252;DHT22;9760;50.944;5.304;2022-11-18T05:38:38;7.90;99.90
19252;DHT22;9760;50.944;5.304;2022-11-18T05:41:04;8.00;99.90
19252;DHT22;9760;50.944;5.304;2022-11-18T05:43:30;8.00;99.90
19252;DHT22;9760;50.944;5.304;2022-11-18T05:45:57;7.90;99.90
19252;DHT22;9760;50.944;5.304;2022-11-18T05:48:23;8.00;99.90
19252;DHT22;9760;50.944;5.304;2022-11-18T05:50:51;8.00;99.90
19252;DHT22;9760;50.944;5.304;2022-11-18T05:53:18;7.90;99.90
19252;DHT22;9760;50.944;5.304;2022-11-18T05:55:56;7.90;99.90
19252;DHT22;9760;50.944;5.304;2022-11-18T05:58:23;7.90;99.90
19252;DHT22;9760;50.944;5.304;2022-11-18T06:00:50;7.90;99.90
19252;DHT22;9760;50.944;5.304;2022-11-18T06:03:23;7.90;99.90
19252;DHT22;9760;50.944;5.304;2022-11-18T06:05:53;7.80;99.90
19252;DHT22;9760;50.944;5.304;2022-11-18T06:08:20;7.70;99.90
19252;DHT22;9760;50.944;5.304;2022-11-18T06:10:48;7.80;99.90
19252;DHT22;9760;50.944;5.304;2022-11-18T06:13:19;7.70;99.90
19252;DHT22;9760;50.944;5.304;2022-11-18T06:15:46;7.70;99.90
19252;DHT22;9760;50.944;5.304;2022-11-18T06:18:16;7.70;99.90
19252;DHT22;9760;50.944;5.304;2022-11-18T06:20:44;7.70;99.90
19252;DHT22;9760;50.944;5.304;2022-11-18T06:23:10;7.80;99.90
19252;DHT22;9760;50.944;5.304;2022-11-18T06:25:39;7.80;99.90
19252;DHT22;9760;50.944;5.304;2022-11-18T06:28:06;7.80;99.90
19252;DHT22;9760;50.944;5.304;2022-11-18T06:30:34;7.90;99.90
19252;DHT22;9760;50.944;5.304;2022-11-18T06:32:59;7.90;99.90
19252;DHT22;9760;50.944;5.304;2022-11-18T06:35:25;7.80;99.90
19252;DHT22;9760;50.944;5.304;2022-11-18T06:37:50;7.80;99.90
19252;DHT22;9760;50.944;5.304;2022-11-18T06:40:16;7.80;99.90
19252;DHT22;9760;50.944;5.304;2022-11-18T06:42:42;7.90;99.90
19252;DHT22;9760;50.944;5.304;2022-11-18T06:45:26;7.80;99.90
19252;DHT22;9760;50.944;5.304;2022-11-18T06:47:55;7.70;99.90
19252;DHT22;9760;50.944;5.304;2022-11-18T06:50:21;7.70;99.90
19252;DHT22;9760;50.944;5.304;2022-11-18T06:52:47;7.60;99.90
19252;DHT22;9760;50.944;5.304;2022-11-18T06:55:12;7.60;99.90
19252;DHT22;9760;50.944;5.304;2022-11-18T06:57:38;7.70;99.90
19252;DHT22;9760;50.944;5.304;2022-11-18T07:00:04;7.60;99.90
19252;DHT22;9760;50.944;5.304;2022-11-18T07:02:30;7.60;99.90
19252;DHT22;9760;50.944;5.304;2022-11-18T07:04:56;7.50;99.90
19252;DHT22;9760;50.944;5.304;2022-11-18T07:07:21;7.50;99.90
19252;DHT22;9760;50.944;5.304;2022-11-18T07:09:47;7.50;99.90
19252;DHT22;9760;50.944;5.304;2022-11-18T07:12:12;7.50;99.90
19252;DHT22;9760;50.944;5.304;2022-11-18T07:14:38;7.50;99.90
19252;DHT22;9760;50.944;5.304;2022-11-18T07:17:04;7.60;99.90
19252;DHT22;9760;50.944;5.304;2022-11-18T07:19:29;7.60;99.90
19252;DHT22;9760;50.944;5.304;2022-11-18T07:21:55;7.70;99.90
19252;DHT22;9760;50.944;5.304;2022-11-18T07:24:21;7.70;99.90
19252;DHT22;9760;50.944;5.304;2022-11-18T07:26:46;7.70;99.90
19252;DHT22;9760;50.944;5.304;2022-11-18T07:29:12;7.70;99.90
19252;DHT22;9760;50.944;5.304;2022-11-18T07:31:38;7.70;99.90
19252;DHT22;9760;50.944;5.304;2022-11-18T07:34:04;7.70;99.90
19252;DHT22;9760;50.944;5.304;2022-11-18T07:36:30;7.70;99.90
19252;DHT22;9760;50.944;5.304;2022-11-18T07:38:58;7.70;99.90
19252;DHT22;9760;50.944;5.304;2022-11-18T07:41:27;7.70;99.90
19252;DHT22;9760;50.944;5.304;2022-11-18T07:43:54;7.80;99.90
19252;DHT22;9760;50.944;5.304;2022-11-18T07:46:22;7.80;99.90
19252;DHT22;9760;50.944;5.304;2022-11-18T07:48:50;7.90;99.90
19252;DHT22;9760;50.944;5.304;2022-11-18T07:51:18;7.90;99.90
19252;DHT22;9760;50.944;5.304;2022-11-18T07:53:44;8.00;99.90
19252;DHT22;9760;50.944;5.304;2022-11-18T07:56:10;8.00;99.90
19252;DHT22;9760;50.944;5.304;2022-11-18T07:58:36;8.00;99.90
19252;DHT22;9760;50.944;5.304;2022-11-18T08:01:14;8.00;99.90
19252;DHT22;9760;50.944;5.304;2022-11-18T08:03:40;8.10;99.90
19252;DHT22;9760;50.944;5.304;2022-11-18T08:06:08;8.10;99.90
19252;DHT22;9760;50.944;5.304;2022-11-18T08:08:35;8.20;99.90
19252;DHT22;9760;50.944;5.304;2022-11-18T08:11:03;8.20;99.90
19252;DHT22;9760;50.944;5.304;2022-11-18T08:13:30;8.30;99.90
19252;DHT22;9760;50.944;5.304;2022-11-18T08:15:56;8.40;99.90
19252;DHT22;9760;50.944;5.304;2022-11-18T08:18:22;8.40;99.90
19252;DHT22;9760;50.944;5.304;2022-11-18T08:20:48;8.40;99.90
19252;DHT22;9760;50.944;5.304;2022-11-18T08:23:15;8.50;99.90
19252;DHT22;9760;50.944;5.304;2022-11-18T08:25:42;8.60;99.90
19252;DHT22;9760;50.944;5.304;2022-11-18T08:28:08;8.80;99.90
19252;DHT22;9760;50.944;5.304;2022-11-18T08:30:34;8.80;99.90
19252;DHT22;9760;50.944;5.304;2022-11-18T08:33:00;8.90;99.90
19252;DHT22;9760;50.944;5.304;2022-11-18T08:35:27;8.90;99.90
19252;DHT22;9760;50.944;5.304;2022-11-18T08:37:52;8.90;99.90
19252;DHT22;9760;50.944;5.304;2022-11-18T08:40:18;9.10;99.90
19252;DHT22;9760;50.944;5.304;2022-11-18T08:42:44;9.10;99.90
19252;DHT22;9760;50.944;5.304;2022-11-18T08:45:10;9.10;99.90
19252;DHT22;9760;50.944;5.304;2022-11-18T08:47:36;9.20;99.90
19252;DHT22;9760;50.944;5.304;2022-11-18T08:50:09;9.30;99.90
19252;DHT22;9760;50.944;5.304;2022-11-18T08:52:38;9.30;99.90
19252;DHT22;9760;50.944;5.304;2022-11-18T08:55:04;9.40;99.90
19252;DHT22;9760;50.944;5.304;2022-11-18T08:57:30;9.50;99.90
19252;DHT22;9760;50.944;5.304;2022-11-18T08:59:55;9.60;99.90
19252;DHT22;9760;50.944;5.304;2022-11-18T09:02:22;9.60;99.90
19252;DHT22;9760;50.944;5.304;2022-11-18T09:04:51;9.60;99.90
19252;DHT22;9760;50.944;5.304;2022-11-18T09:07:18;9.70;99.90
19252;DHT22;9760;50.944;5.304;2022-11-18T09:09:44;9.80;99.90
19252;DHT22;9760;50.944;5.304;2022-11-18T09:12:10;9.70;99.90
19252;DHT22;9760;50.944;5.304;2022-11-18T09:14:41;9.70;99.90
19252;DHT22;9760;50.944;5.304;2022-11-18T09:17:07;9.80;99.90
19252;DHT22;9760;50.944;5.304;2022-11-18T09:19:33;9.70;99.90
19252;DHT22;9760;50.944;5.304;2022-11-18T09:21:59;9.80;99.90
19252;DHT22;9760;50.944;5.304;2022-11-18T09:24:24;9.80;99.90
19252;DHT22;9760;50.944;5.304;2022-11-18T09:26:50;9.90;99.90
19252;DHT22;9760;50.944;5.304;2022-11-18T09:29:17;10.10;99.90
19252;DHT22;9760;50.944;5.304;2022-11-18T09:31:44;10.00;99.90
19252;DHT22;9760;50.944;5.304;2022-11-18T09:34:10;10.20;99.90
19252;DHT22;9760;50.944;5.304;2022-11-18T09:36:35;10.20;99.90
19252;DHT22;9760;50.944;5.304;2022-11-18T09:39:01;10.40;99.90
19252;DHT22;9760;50.944;5.304;2022-11-18T09:41:54;10.20;99.90
19252;DHT22;9760;50.944;5.304;2022-11-18T09:47:26;10.10;99.90
19252;DHT22;9760;50.944;5.304;2022-11-18T09:49:58;10.20;99.90
19252;DHT22;9760;50.944;5.304;2022-11-18T09:52:38;10.10;99.90
19252;DHT22;9760;50.944;5.304;2022-11-18T09:55:12;10.10;99.90
19252;DHT22;9760;50.944;5.304;2022-11-18T09:57:58;10.10;99.90
19252;DHT22;9760;50.944;5.304;2022-11-18T10:00:28;10.10;99.90
19252;DHT22;9760;50.944;5.304;2022-11-18T10:03:15;10.10;99.90
19252;DHT22;9760;50.944;5.304;2022-11-18T10:11:44;10.20;99.90
19252;DHT22;9760;50.944;5.304;2022-11-18T10:19:56;10.30;99.90
19252;DHT22;9760;50.944;5.304;2022-11-18T10:22:47;10.20;99.90
19252;DHT22;9760;50.944;5.304;2022-11-18T10:25:16;10.20;99.90
19252;DHT22;9760;50.944;5.304;2022-11-18T10:27:44;10.20;99.90
19252;DHT22;9760;50.944;5.304;2022-11-18T10:32:52;10.30;99.90
19252;DHT22;9760;50.944;5.304;2022-11-18T10:35:31;10.20;99.90
19252;DHT22;9760;50.944;5.304;2022-11-18T10:38:02;10.30;99.90
19252;DHT22;9760;50.944;5.304;2022-11-18T10:40:30;10.30;99.90
19252;DHT22;9760;50.944;5.304;2022-11-18T10:42:57;10.40;99.90
19252;DHT22;9760;50.944;5.304;2022-11-18T10:48:18;10.40;99.90
19252;DHT22;9760;50.944;5.304;2022-11-18T10:50:48;10.30;99.90
19252;DHT22;9760;50.944;5.304;2022-11-18T10:53:35;10.30;99.90
19252;DHT22;9760;50.944;5.304;2022-11-18T10:56:02;10.30;99.90
19252;DHT22;9760;50.944;5.304;2022-11-18T10:58:31;10.30;99.90
19252;DHT22;9760;50.944;5.304;2022-11-18T11:01:20;10.30;99.90
19252;DHT22;9760;50.944;5.304;2022-11-18T11:04:17;10.30;99.90
19252;DHT22;9760;50.944;5.304;2022-11-18T11:06:44;10.30;99.90
19252;DHT22;9760;50.944;5.304;2022-11-18T11:09:25;10.30;99.90
19252;DHT22;9760;50.944;5.304;2022-11-18T11:11:57;10.40;99.90
19252;DHT22;9760;50.944;5.304;2022-11-18T11:17:21;10.40;99.90
19252;DHT22;9760;50.944;5.304;2022-11-18T11:22:40;10.40;99.90
19252;DHT22;9760;50.944;5.304;2022-11-18T11:25:16;10.40;99.90
19252;DHT22;9760;50.944;5.304;2022-11-18T11:28:00;10.40;99.90
19252;DHT22;9760;50.944;5.304;2022-11-18T11:30:27;10.50;99.90
19252;DHT22;9760;50.944;5.304;2022-11-18T11:41:47;10.50;99.90
19252;DHT22;9760;50.944;5.304;2022-11-18T11:47:17;10.50;99.90
19252;DHT22;9760;50.944;5.304;2022-11-18T11:50:16;10.50;99.90
19252;DHT22;9760;50.944;5.304;2022-11-18T12:01:01;10.60;99.90
19252;DHT22;9760;50.944;5.304;2022-11-18T12:03:46;10.60;99.90
19252;DHT22;9760;50.944;5.304;2022-11-18T12:06:13;10.70;99.90
19252;DHT22;9760;50.944;5.304;2022-11-18T12:08:49;10.70;99.90
19252;DHT22;9760;50.944;5.304;2022-11-18T12:16:36;10.90;99.90
19252;DHT22;9760;50.944;5.304;2022-11-18T12:19:11;11.00;99.90
19252;DHT22;9760;50.944;5.304;2022-11-18T12:26:55;11.40;99.90
19252;DHT22;9760;50.944;5.304;2022-11-18T12:29:24;11.40;99.90
19252;DHT22;9760;50.944;5.304;2022-11-18T12:31:59;11.50;99.90
19252;DHT22;9760;50.944;5.304;2022-11-18T12:34:41;11.50;99.90
19252;DHT22;9760;50.944;5.304;2022-11-18T12:40:05;11.40;99.90
19252;DHT22;9760;50.944;5.304;2022-11-18T12:53:44;11.50;99.90
19252;DHT22;9760;50.944;5.304;2022-11-18T12:58:50;11.40;99.90
19252;DHT22;9760;50.944;5.304;2022-11-18T13:01:19;11.40;99.90
19252;DHT22;9760;50.944;5.304;2022-11-18T13:03:45;11.30;99.90
19252;DHT22;9760;50.944;5.304;2022-11-18T13:06:29;11.30;99.90
19252;DHT22;9760;50.944;5.304;2022-11-18T13:09:04;11.40;99.90
19252;DHT22;9760;50.944;5.304;2022-11-18T13:11:40;11.30;99.90
19252;DHT22;9760;50.944;5.304;2022-11-18T13:14:27;11.30;99.90
19252;DHT22;9760;50.944;5.304;2022-11-18T13:17:33;11.40;99.90
19252;DHT22;9760;50.944;5.304;2022-11-18T13:22:53;11.40;99.90
19252;DHT22;9760;50.944;5.304;2022-11-18T13:25:39;11.40;99.90
19252;DHT22;9760;50.944;5.304;2022-11-18T13:28:37;11.30;99.90
19252;DHT22;9760;50.944;5.304;2022-11-18T13:31:24;11.40;99.90
19252;DHT22;9760;50.944;5.304;2022-11-18T13:33:52;11.30;99.90
19252;DHT22;9760;50.944;5.304;2022-11-18T13:36:22;11.40;99.90
19252;DHT22;9760;50.944;5.304;2022-11-18T13:39:04;11.40;99.90
19252;DHT22;9760;50.944;5.304;2022-11-18T13:41:32;11.40;99.90
19252;DHT22;9760;50.944;5.304;2022-11-18T13:46:40;11.40;99.90
19252;DHT22;9760;50.944;5.304;2022-11-18T13:49:16;11.40;99.90
19252;DHT22;9760;50.944;5.304;2022-11-18T13:51:43;11.30;99.90
19252;DHT22;9760;50.944;5.304;2022-11-18T13:54:20;11.30;99.90
19252;DHT22;9760;50.944;5.304;2022-11-18T13:56:48;11.30;99.90
19252;DHT22;9760;50.944;5.304;2022-11-18T13:59:17;11.30;99.90
19252;DHT22;9760;50.944;5.304;2022-11-18T14:01:45;11.30;99.90
19252;DHT22;9760;50.944;5.304;2022-11-18T14:04:29;11.30;99.90
19252;DHT22;9760;50.944;5.304;2022-11-18T14:09:52;11.20;99.90
19252;DHT22;9760;50.944;5.304;2022-11-18T14:14:44;11.10;99.90
19252;DHT22;9760;50.944;5.304;2022-11-18T14:17:25;11.10;99.90
19252;DHT22;9760;50.944;5.304;2022-11-18T14:19:56;11.10;99.90
19252;DHT22;9760;50.944;5.304;2022-11-18T14:22:23;11.10;99.90
19252;DHT22;9760;50.944;5.304;2022-11-18T14:30:35;11.00;99.90
19252;DHT22;9760;50.944;5.304;2022-11-18T14:38:37;10.90;99.90
19252;DHT22;9760;50.944;5.304;2022-11-18T14:41:07;10.70;99.90
19252;DHT22;9760;50.944;5.304;2022-11-18T14:43:33;10.70;99.90
19252;DHT22;9760;50.944;5.304;2022-11-18T14:46:19;10.60;99.90
19252;DHT22;9760;50.944;5.304;2022-11-18T14:48:46;10.60;99.90
19252;DHT22;9760;50.944;5.304;2022-11-18T14:51:13;10.60;99.90
19252;DHT22;9760;50.944;5.304;2022-11-18T14:53:39;10.50;99.90
19252;DHT22;9760;50.944;5.304;2022-11-18T14:56:12;10.20;99.90
19252;DHT22;9760;50.944;5.304;2022-11-18T14:58:39;10.40;99.90
19252;DHT22;9760;50.944;5.304;2022-11-18T15:01:05;10.30;99.90
19252;DHT22;9760;50.944;5.304;2022-11-18T15:03:32;10.30;99.90
19252;DHT22;9760;50.944;5.304;2022-11-18T15:05:58;10.30;99.90
19252;DHT22;9760;50.944;5.304;2022-11-18T15:08:24;10.30;99.90
19252;DHT22;9760;50.944;5.304;2022-11-18T15:10:49;10.20;99.90
19252;DHT22;9760;50.944;5.304;2022-11-18T15:13:15;10.20;99.90
19252;DHT22;9760;50.944;5.304;2022-11-18T15:15:40;10.20;99.90
19252;DHT22;9760;50.944;5.304;2022-11-18T15:18:07;10.10;99.90
19252;DHT22;9760;50.944;5.304;2022-11-18T15:20:33;10.10;99.90
19252;DHT22;9760;50.944;5.304;2022-11-18T15:22:58;10.10;99.90
19252;DHT22;9760;50.944;5.304;2022-11-18T15:25:24;10.00;99.90
19252;DHT22;9760;50.944;5.304;2022-11-18T15:27:49;9.90;99.90
19252;DHT22;9760;50.944;5.304;2022-11-18T15:30:15;9.90;99.90
19252;DHT22;9760;50.944;5.304;2022-11-18T15:32:41;9.90;99.90
19252;DHT22;9760;50.944;5.304;2022-11-18T15:35:09;9.80;99.90
19252;DHT22;9760;50.944;5.304;2022-11-18T15:37:36;9.80;99.90
19252;DHT22;9760;50.944;5.304;2022-11-18T15:40:01;9.80;99.90
19252;DHT22;9760;50.944;5.304;2022-11-18T15:42:27;9.70;99.90
19252;DHT22;9760;50.944;5.304;2022-11-18T15:44:52;9.70;99.90
19252;DHT22;9760;50.944;5.304;2022-11-18T15:47:18;9.70;99.90
19252;DHT22;9760;50.944;5.304;2022-11-18T15:49:45;9.80;99.90
19252;DHT22;9760;50.944;5.304;2022-11-18T15:52:12;9.80;99.90
19252;DHT22;9760;50.944;5.304;2022-11-18T15:54:37;9.80;99.90
19252;DHT22;9760;50.944;5.304;2022-11-18T15:57:03;9.80;99.90
19252;DHT22;9760;50.944;5.304;2022-11-18T15:59:29;9.80;99.90
19252;DHT22;9760;50.944;5.304;2022-11-18T16:01:55;9.80;99.90
19252;DHT22;9760;50.944;5.304;2022-11-18T16:04:22;9.70;99.90
19252;DHT22;9760;50.944;5.304;2022-11-18T16:06:48;9.70;99.90
19252;DHT22;9760;50.944;5.304;2022-11-18T16:09:14;9.80;99.90
19252;DHT22;9760;50.944;5.304;2022-11-18T16:11:40;9.80;99.90
19252;DHT22;9760;50.944;5.304;2022-11-18T16:14:25;9.90;99.90
19252;DHT22;9760;50.944;5.304;2022-11-18T16:16:53;9.80;99.90
19252;DHT22;9760;50.944;5.304;2022-11-18T16:19:21;9.80;99.90
19252;DHT22;9760;50.944;5.304;2022-11-18T16:21:50;9.80;99.90
19252;DHT22;9760;50.944;5.304;2022-11-18T16:24:22;9.80;99.90
19252;DHT22;9760;50.944;5.304;2022-11-18T16:26:48;9.70;99.90
19252;DHT22;9760;50.944;5.304;2022-11-18T16:29:14;9.60;99.90
19252;DHT22;9760;50.944;5.304;2022-11-18T16:31:41;9.60;99.90
19252;DHT22;9760;50.944;5.304;2022-11-18T16:34:20;9.60;99.90
19252;DHT22;9760;50.944;5.304;2022-11-18T16:36:50;9.50;99.90
19252;DHT22;9760;50.944;5.304;2022-11-18T16:39:26;9.30;99.90
19252;DHT22;9760;50.944;5.304;2022-11-18T16:41:54;9.30;99.90
19252;DHT22;9760;50.944;5.304;2022-11-18T16:44:20;9.30;99.90
19252;DHT22;9760;50.944;5.304;2022-11-18T16:46:48;9.30;99.90
19252;DHT22;9760;50.944;5.304;2022-11-18T16:49:16;9.30;99.90
19252;DHT22;9760;50.944;5.304;2022-11-18T16:51:43;9.30;99.90
19252;DHT22;9760;50.944;5.304;2022-11-18T16:56:47;9.30;99.90
19252;DHT22;9760;50.944;5.304;2022-11-18T16:59:21;9.30;99.90
19252;DHT22;9760;50.944;5.304;2022-11-18T17:01:47;9.30;99.90
19252;DHT22;9760;50.944;5.304;2022-11-18T17:04:14;9.20;99.90
19252;DHT22;9760;50.944;5.304;2022-11-18T17:06:40;9.20;99.90
19252;DHT22;9760;50.944;5.304;2022-11-18T17:09:08;9.20;99.90
19252;DHT22;9760;50.944;5.304;2022-11-18T17:11:36;9.20;99.90
19252;DHT22;9760;50.944;5.304;2022-11-18T17:14:02;9.30;99.90
19252;DHT22;9760;50.944;5.304;2022-11-18T17:16:28;9.20;99.90
19252;DHT22;9760;50.944;5.304;2022-11-18T17:18:58;9.10;99.90
19252;DHT22;9760;50.944;5.304;2022-11-18T17:21:25;9.10;99.90
19252;DHT22;9760;50.944;5.304;2022-11-18T17:23:52;9.20;99.90
19252;DHT22;9760;50.944;5.304;2022-11-18T17:26:20;9.20;99.90
19252;DHT22;9760;50.944;5.304;2022-11-18T17:28:46;9.30;99.90
19252;DHT22;9760;50.944;5.304;2022-11-18T17:31:15;9.30;99.90
19252;DHT22;9760;50.944;5.304;2022-11-18T17:33:41;9.20;99.90
19252;DHT22;9760;50.944;5.304;2022-11-18T17:36:12;9.20;99.90
19252;DHT22;9760;50.944;5.304;2022-11-18T17:38:40;9.20;99.90
19252;DHT22;9760;50.944;5.304;2022-11-18T17:41:07;9.20;99.90
19252;DHT22;9760;50.944;5.304;2022-11-18T17:43:33;9.20;99.90
19252;DHT22;9760;50.944;5.304;2022-11-18T17:46:00;9.20;99.90
19252;DHT22;9760;50.944;5.304;2022-11-18T17:48:27;9.20;99.90
19252;DHT22;9760;50.944;5.304;2022-11-18T17:50:53;9.20;99.90
19252;DHT22;9760;50.944;5.304;2022-11-18T17:53:19;9.20;99.90
19252;DHT22;9760;50.944;5.304;2022-11-18T17:55:46;9.10;99.90
19252;DHT22;9760;50.944;5.304;2022-11-18T17:58:12;9.20;99.90
19252;DHT22;9760;50.944;5.304;2022-11-18T18:00:38;9.20;99.90
19252;DHT22;9760;50.944;5.304;2022-11-18T18:03:04;9.20;99.90